Redcliffe Ses, Queensland

7:16 PM AEST on February 06, 2016 (GMT +1000)
Mango Hill | | Change Station
CLOSE
Current Station
Personal Weather Station
Location: Mango Hill, QUEENSLAND
Elevation: 62 ft
Nearby Weather Stations

Elev 62 ft 27.22 °S, 153.03 °E | Updated 2 seconds ago

Mostly Cloudy
Mostly Cloudy
75.6 °F
Feels Like 78 °F
N
4.0
Wind Variable Wind from East
Gusts 4.9 mph

Today
High -- | Low -- °F
--% Chance of Precip.
Yesterday
High -- | Low -- °F
Precip. -- in
Pressure 29.86 in
Visibility 6.2 miles
Clouds Scattered Clouds 700 ft
Mostly Cloudy 1700 ft
Heat Index 78 °F
Dew Point 52 °F
Humidity 43%
Rainfall 0.04 in
Snow Depth Not available.
5:23 AM 6:38 PM
Waning Crescent, 6% visible
METAR YBBN 060900Z 14011KT 9999 VCSH SCT007 BKN017 24/21 Q1011 FM1000 18010KT 9999 SCT018 BKN040
Pressure 29.86 in
Visibility 6.2 miles
Clouds Scattered Clouds 700 ft
Mostly Cloudy 1700 ft
Heat Index 78 °F
Dew Point 52 °F
Humidity 43%
Rainfall 0.04 in
Snow Depth Not available.
5:23 AM 6:38 PM
Waning Crescent, 6% visible
METAR YBBN 060900Z 14011KT 9999 VCSH SCT007 BKN017 24/21 Q1011 FM1000 18010KT 9999 SCT018 BKN040

10-Day Weather Forecast

Almanac

Astronomy

Feb. 06, 2016 Rise Set
Actual Time
Civil Twilight
Nautical Twilight
Astronomical Twilight
Moon
Length of Visible Light
Length of Day
Tomorrow will be .
, % of the Moon is Illuminated

Today's Extremes

Country Highs Country Lows

Community

WunderPhotos

Upload Photos

1,890,933 photos uploaded!

WunderBlog® & News

Nearby

Air Quality

  Air Quality AQ Index Pollutant
Not available.

Snow Depth

Station Depth Elevation

Earthquake Activity

City Distance Mag. Time & Date
Minimum magnitude displayed is 2.5.

Coastal Water Temperatures

Place Temperature

Stations

Nearby Weather Stations

Station Location Temp. Windchill Dew Point Humidity Wind Precip. Elev Updated Type